Terminal Aerodrome Forecast
Issued by NWS Wilmington, OH

Current Version | Previous Version | Text Only | Print | Product List | Glossary On
Versions: 1 2 3 4 5 6 7 8 9 10 11 12 13 14 15 16 17 18 19 20 21 22
000 FTUS41 KILN 261746 AAA TAFCVG TAF AMD KCVG 261746Z 2618/2724 21008KT P6SM VCSH SCT050 FM270200 24005KT P6SM VCTS BKN050CB FM270700 28004KT P6SM BKN050 OVC150 FM271300 33006KT P6SM SCT040 BKN200 FM271900 29008KT P6SM FEW060 SCT250=

USA.gov is the U.S. government's official web portal to all federal, state and local government web resources and services.